Centennial, WY (82055)

5:20 PM MDT on October 20, 2014 (GMT -0600)
Aspen Country | Change Station
CLOSE
Current Station
Personal Weather Station
Location: Centennial, WY
Elevation: 8050 ft
Nearby Weather Stations

Elev 8050 ft 41.29 °N, 106.15 °W | Updated 16 seconds ago

Mostly Cloudy
Mostly Cloudy
59.0 °F
Feels Like 59.0 °F
N
5.0
Wind Variable Wind from North
Gusts 5.0 mph

Today
High -- | Low -- °F
--% Chance of Precip.
Yesterday
High -- | Low -- °F
Precip. -- in
7:21 AM 6:15 PM
Waning Crescent, 8% visible
Pressure 29.95 in
Visibility 10.0 miles
Clouds Mostly Cloudy 9000 ft
Dew Point 34 °F
Humidity 39%
Rainfall 0.00 in
Snow Depth 0 in , 4 in
UV 0 out of 12
Pollen 3.00 out of 12
Air Quality Not available.
Flu Activity Sporadic
METAR KLAR 202253Z AUTO 01003KT 10SM BKN090 18/M01 A3014 RMK AO2 SLP140 T01831011

More Conditions Fewer Conditions

Pressure 29.95 in
Visibility 10.0 miles
Clouds Mostly Cloudy 9000 ft
Dew Point 34 °F
Humidity 39%
Rainfall 0.00 in
Snow Depth 0 in , 4 in
UV 0 out of 12
Pollen 3.00 out of 12
Air Quality Not available.
Flu Activity Sporadic
METAR KLAR 202253Z AUTO 01003KT 10SM BKN090 18/M01 A3014 RMK AO2 SLP140 T01831011

More Conditions Fewer Conditions

10-Day Weather Forecast

Almanac

Astronomy

Oct. 20, 2014 Rise Set
Actual Time 7:21 AM MDT 6:15 PM MDT
Civil Twilight 6:53 AM MDT 6:43 PM MDT
Nautical Twilight 6:21 AM MDT 7:16 PM MDT
Astronomical Twilight 5:49 AM MDT 7:48 PM MDT
Moon 4:10 AM MDT 4:41 PM MDT
Length of Visible Light 11h 50m
Length of Day
10h 54m
Tomorrow will be 2m 36s shorter.
Waning Crescent, 8% of the Moon is Illuminated
Today
Waning Crescent
Oct 23
New
Oct 30
First Quarter
Nov 6
Full
Nov 14
Last Quarter

Today's Extremes

State Highs State Lows

Community

WunderPhotos

Upload Photos

1,763,544 photos uploaded!

WunderBlogs® & News

By Dr. Jeff Masters
Director of Meteorology, Weather Underground
By Kari Strenfel
Meteorologist, Weather Underground
By Christopher C. Burt
Weather Historian, Weather Underground
October 20, 2014
October 20, 2014
October 20, 2014

Nearby

Snow Depth

Station Depth Elevation
Cinnabar Park 0 in 9690 ft
Sand Lake 4 in 10050 ft
Crow Creek 0 in 8330 ft
Old Battle 2 in 9920 ft
Windy Peak 0 in 7900 ft

Earthquake Activity

City Distance Mag. Time & Date
No recent earthquake activity has been reported nearby.
Minimum magnitude displayed is 2.5.

Coastal Water Temperatures

Place Temperature
No Stations Reporting

Nearby Weather Stations